Sammamish, WA (98074)

10:10 AM PST on December 09, 2016 (GMT -0800)
Sahalee | | Change Station

Elev 401 ft 47.63 °N, 122.03 °W | Updated 6 seconds ago

Ice Pellets
Ice Pellets
32.5 °F
Feels Like 32 °F
N
2.7
Wind Variable Wind from NE
Gusts 2.7 mph

Today
High -- | Low -- °F
--% Chance of Precip.
Yesterday
High -- | Low -- °F
Precip. -- in
Pressure 30.01 in
Visibility 3.0 miles
Clouds Overcast 2400 ft
Windchill 32 °F
Dew Point 20 °F
Humidity 59%
Rainfall 0.00 in
Snow Depth Not available.
7:45 AM 4:16 PM
Waxing Gibbous, 76% visible
METAR KRNT 091753Z 13008KT 090V150 3SM -RA BR OVC024 01/M01 A2999 RMK AO2 UPB09E16 SLP162 P0001 60002 T00111006 10017 20011 51005
Pressure 30.01 in
Visibility 3.0 miles
Clouds Overcast 2400 ft
Windchill 32 °F
Dew Point 20 °F
Humidity 59%
Rainfall 0.00 in
Snow Depth Not available.
7:45 AM 4:16 PM
Waxing Gibbous, 76% visible
METAR KRNT 091753Z 13008KT 090V150 3SM -RA BR OVC024 01/M01 A2999 RMK AO2 UPB09E16 SLP162 P0001 60002 T00111006 10017 20011 51005

10-Day Weather Forecast

Almanac

Astronomy

Dec. 09, 2016 Rise Set
Actual Time
Civil Twilight
Nautical Twilight
Astronomical Twilight
Moon
Length of Visible Light
Length of Day
Tomorrow will be .
, % of the Moon is Illuminated

Today's Extremes

State Highs State Lows

Community

WunderPhotos

Upload Photos

1,956,499 photos uploaded!

WunderBlog® & News

Nearby

Air Quality

  Air Quality AQ Index Pollutant
Not available.

Snow Depth

Station Depth Elevation

Earthquake Activity

City Distance Mag. Time & Date
Minimum magnitude displayed is 2.5.

Coastal Water Temperatures

Place Temperature

Stations

Nearby Weather Stations

Station Location Temp. Windchill Dew Point Humidity Wind Precip. Elev Updated Type
                   

Watches & Warnings

There are currently no watches in effect.